createdAt,value
2022-12-08T00:02:34.739Z,1.70
2022-12-08T00:08:51.123Z,1.71
2022-12-08T00:15:20.675Z,1.72
2022-12-08T00:21:33.280Z,1.79
2022-12-08T00:27:53.513Z,1.86
2022-12-08T00:33:38.988Z,1.90
2022-12-08T00:40:06.583Z,1.90
2022-12-08T00:46:33.576Z,1.96
2022-12-08T00:53:00.130Z,2.00
2022-12-08T00:58:47.154Z,2.02
2022-12-08T01:04:43.309Z,2.02
2022-12-08T01:10:44.582Z,2.05
2022-12-08T01:16:48.137Z,2.07
2022-12-08T01:23:07.071Z,2.05
2022-12-08T01:29:29.955Z,2.00
2022-12-08T01:35:48.896Z,2.00
2022-12-08T01:42:11.586Z,1.96
2022-12-08T01:48:36.448Z,1.92
2022-12-08T01:54:41.575Z,1.88
2022-12-08T02:00:33.054Z,1.93
2022-12-08T02:06:21.673Z,1.97
2022-12-08T02:12:45.302Z,1.96
2022-12-08T02:19:30.395Z,1.93
2022-12-08T02:26:14.527Z,1.93
2022-12-08T02:32:22.332Z,1.93
2022-12-08T02:38:32.107Z,1.85
2022-12-08T02:44:41.721Z,1.84
2022-12-08T02:50:36.884Z,1.82
2022-12-08T03:09:35.936Z,1.73
2022-12-08T03:15:31.465Z,1.73
2022-12-08T03:21:39.132Z,1.71
2022-12-08T03:27:43.178Z,1.67
2022-12-08T03:33:49.180Z,1.70
2022-12-08T03:39:32.932Z,1.78
2022-12-08T03:45:27.454Z,1.79
2022-12-08T03:51:14.213Z,1.77
2022-12-08T03:56:56.412Z,1.74
2022-12-08T04:03:03.594Z,1.79
2022-12-08T04:09:26.260Z,1.86
2022-12-08T04:15:29.097Z,1.85
2022-12-08T04:21:30.810Z,1.83
2022-12-08T04:27:50.584Z,1.78
2022-12-08T04:34:13.008Z,1.81
2022-12-08T04:40:54.906Z,1.81
2022-12-08T04:46:57.759Z,1.78
2022-12-08T04:53:01.780Z,1.73
2022-12-08T04:58:56.485Z,1.75
2022-12-08T05:04:48.493Z,1.75
2022-12-08T05:10:21.708Z,1.71
2022-12-08T05:16:08.912Z,1.67
2022-12-08T05:22:10.988Z,1.71
2022-12-08T05:27:43.980Z,1.76
2022-12-08T05:33:46.921Z,1.77
2022-12-08T05:40:10.637Z,1.77
2022-12-08T05:46:34.401Z,1.76
2022-12-08T05:52:18.693Z,1.82
2022-12-08T05:58:42.517Z,1.83
2022-12-08T06:05:09.411Z,1.79
2022-12-08T06:11:32.829Z,1.79
2022-12-08T06:18:15.529Z,1.81
2022-12-08T06:24:58.659Z,1.81
2022-12-08T06:31:41.928Z,1.78
2022-12-08T06:38:25.362Z,1.76
2022-12-08T06:45:10.774Z,1.83
2022-12-08T06:52:08.652Z,1.84
2022-12-08T06:58:54.071Z,1.82
2022-12-08T07:05:38.315Z,1.88
2022-12-08T07:12:36.293Z,1.92
2022-12-08T07:19:20.618Z,1.89
2022-12-08T07:26:08.359Z,1.88
2022-12-08T07:32:56.383Z,1.96
2022-12-08T07:39:39.893Z,2.01
2022-12-08T07:46:23.069Z,2.06
2022-12-08T07:53:08.429Z,2.13
2022-12-08T07:59:51.879Z,2.24
2022-12-08T08:06:35.368Z,2.33
2022-12-08T08:13:18.237Z,2.41
2022-12-08T08:20:01.867Z,2.47
2022-12-08T08:26:45.739Z,2.57
2022-12-08T08:33:28.808Z,2.73
2022-12-08T08:40:12.150Z,2.84
2022-12-08T08:47:01.528Z,2.95
2022-12-08T08:53:44.608Z,3.02
2022-12-08T09:00:28.194Z,3.09
2022-12-08T09:07:17.837Z,3.11
2022-12-08T09:14:04.032Z,3.28
2022-12-08T09:20:48.335Z,3.49
2022-12-08T09:27:31.905Z,3.66
2022-12-08T09:34:14.921Z,3.81
2022-12-08T09:41:01.980Z,3.93
2022-12-08T09:48:01.283Z,4.05
2022-12-08T09:54:47.858Z,4.16
2022-12-08T10:00:31.497Z,4.26
2022-12-08T10:06:33.888Z,4.27
2022-12-08T10:11:56.239Z,4.28
2022-12-08T10:17:27.567Z,4.35
2022-12-08T10:23:56.557Z,4.45
2022-12-08T10:30:43.783Z,4.47
2022-12-08T10:37:12.107Z,4.45
2022-12-08T10:43:20.126Z,4.47
2022-12-08T10:49:25.309Z,4.54
2022-12-08T10:55:35.636Z,4.59
2022-12-08T11:01:57.642Z,4.57
2022-12-08T11:08:33.253Z,4.54
2022-12-08T11:14:17.793Z,4.45
2022-12-08T11:21:09.711Z,4.34
2022-12-08T11:27:18.293Z,4.23
2022-12-08T11:33:46.923Z,4.21
2022-12-08T11:39:40.454Z,4.24
2022-12-08T11:46:08.584Z,4.35
2022-12-08T11:52:59.921Z,4.41
2022-12-08T11:59:44.551Z,4.46
2022-12-08T12:12:17.738Z,4.33
2022-12-08T12:19:07.453Z,4.21
2022-12-08T12:25:02.332Z,4.12
2022-12-08T12:31:32.675Z,4.17
2022-12-08T12:38:18.924Z,4.13
2022-12-08T12:45:16.211Z,4.00
2022-12-08T13:26:21.620Z,3.10
2022-12-08T13:33:17.758Z,3.12
2022-12-08T14:01:01.749Z,3.05
2022-12-08T14:07:45.639Z,2.95
2022-12-08T14:15:00.511Z,2.95
2022-12-08T14:21:48.103Z,2.93
2022-12-08T14:34:45.443Z,2.96
2022-12-08T14:41:45.434Z,2.98
2022-12-08T14:48:31.596Z,3.00
2022-12-08T14:55:15.792Z,3.02
2022-12-08T15:02:17.111Z,3.09
2022-12-08T15:09:03.682Z,3.10
2022-12-08T15:16:01.069Z,3.13
2022-12-08T15:22:53.831Z,3.18
2022-12-08T15:29:37.658Z,3.25
2022-12-08T15:36:21.240Z,3.23
2022-12-08T15:43:04.540Z,3.24
2022-12-08T15:50:22.276Z,3.37
2022-12-08T15:57:53.054Z,3.42
2022-12-08T16:04:34.080Z,3.36
2022-12-08T16:10:09.181Z,3.37
2022-12-08T16:16:25.645Z,3.36
2022-12-08T16:23:26.682Z,3.31
2022-12-08T16:30:18.998Z,3.25
2022-12-08T16:37:19.430Z,3.30
2022-12-08T16:47:15.940Z,3.36
2022-12-08T16:51:26.603Z,3.36
2022-12-08T17:03:28.292Z,3.49
2022-12-08T17:09:27.121Z,3.49
2022-12-08T17:15:47.011Z,3.49
2022-12-08T17:22:30.557Z,3.53
2022-12-08T17:36:02.189Z,3.50
2022-12-08T17:42:49.121Z,3.53
2022-12-08T17:49:33.232Z,3.57
2022-12-08T17:56:17.588Z,3.59
2022-12-08T18:03:00.904Z,3.68
2022-12-08T18:09:45.937Z,3.73
2022-12-08T18:16:29.476Z,3.73
2022-12-08T18:23:12.565Z,3.71
2022-12-08T18:29:55.835Z,3.78
2022-12-08T18:36:42.137Z,3.79
2022-12-08T18:43:39.109Z,3.73
2022-12-08T18:50:22.930Z,3.64
2022-12-08T18:57:08.980Z,3.62
2022-12-08T19:04:19.825Z,3.60
2022-12-08T19:10:56.912Z,3.49
2022-12-08T19:17:40.240Z,3.44
2022-12-08T19:24:23.044Z,3.52
2022-12-08T19:31:06.566Z,3.58
2022-12-08T19:37:49.127Z,3.51
2022-12-08T19:44:37.255Z,3.48
2022-12-08T19:51:00.600Z,3.55
2022-12-08T19:57:44.867Z,3.60
2022-12-08T20:04:09.187Z,3.61
2022-12-08T20:10:53.177Z,3.70
2022-12-08T20:17:36.419Z,3.77
2022-12-08T20:24:00.552Z,3.79
2022-12-08T20:30:02.717Z,3.77
2022-12-08T20:36:48.390Z,3.84
2022-12-08T20:43:32.056Z,3.93
2022-12-08T20:50:16.942Z,3.93
2022-12-08T20:57:01.664Z,3.90
2022-12-08T21:02:57.985Z,3.95
2022-12-08T21:14:37.381Z,4.01
2022-12-08T21:20:58.494Z,4.02
2022-12-08T21:27:00.839Z,4.01
2022-12-08T21:32:36.694Z,4.07
2022-12-08T21:38:57.878Z,4.07
2022-12-08T21:45:12.845Z,4.05
2022-12-08T21:51:59.532Z,4.00
2022-12-08T21:58:04.503Z,3.92
2022-12-08T22:04:34.769Z,3.93
2022-12-08T22:17:40.844Z,3.84
2022-12-08T22:24:24.894Z,3.73
2022-12-08T22:31:11.732Z,3.71
2022-12-08T22:37:07.206Z,3.66
2022-12-08T22:43:53.125Z,3.60
2022-12-08T22:50:40.767Z,3.52
2022-12-08T22:57:29.080Z,3.52
2022-12-08T23:04:22.437Z,3.50
2022-12-08T23:11:06.546Z,3.39
2022-12-08T23:17:58.024Z,3.31
2022-12-08T23:32:04.935Z,3.36
2022-12-08T23:45:13.429Z,3.29
2022-12-08T23:51:25.690Z,3.28
